Time;durP1;ratioP1;P1;durP2;ratioP2;P2;SDS_P1;SDS_P2;PMS_P1;PMS_P2;Temp;Humidity;BMP_temperature;BMP_pressure;BME280_temperature;BME280_humidity;BME280_pressure;Samples;Min_cycle;Max_cycle;Signal;HPM_P1;HPM_P2
2022/11/05 00:10:24;;;;;;;41.28;24.63;;;6.90;99.90;;;;;;5124555;27;20069;-73
2022/11/05 00:18:20;;;;;;;7.63;3.03;;;6.70;99.90;;;;;;5139566;27;20043;-73
2022/11/05 00:20:46;;;;;;;9.43;2.45;;;7.60;99.90;;;;;;5145027;27;20092;-72
2022/11/05 00:26:01;;;;;;;5.60;2.63;;;6.70;99.90;;;;;;5138798;27;20035;-73
2022/11/05 00:28:28;;;;;;;7.20;2.47;;;6.70;99.90;;;;;;5139719;27;20035;-73
2022/11/05 00:31:00;;;;;;;8.05;2.63;;;6.60;99.90;;;;;;5110702;27;20039;-73
2022/11/05 00:33:26;;;;;;;10.68;3.47;;;6.60;99.90;;;;;;5119814;27;20091;-73
2022/11/05 00:35:51;;;;;;;9.25;3.22;;;6.50;99.90;;;;;;5124428;27;20047;-73
2022/11/05 00:38:17;;;;;;;5.53;2.20;;;6.50;99.90;;;;;;5105274;28;20536;-72
2022/11/05 00:40:43;;;;;;;10.85;2.33;;;6.50;99.90;;;;;;5122306;27;20039;-72
2022/11/05 00:45:53;;;;;;;5.60;2.63;;;6.50;99.90;;;;;;5136865;27;20054;-73
2022/11/05 00:51:03;;;;;;;6.28;2.28;;;7.80;99.90;;;;;;5120116;27;20447;-73
2022/11/05 00:53:29;;;;;;;7.85;1.98;;;6.50;99.90;;;;;;5140116;27;20035;-72
2022/11/05 00:55:54;;;;;;;11.00;2.50;;;6.50;99.90;;;;;;5142025;27;20094;-73
2022/11/05 00:58:21;;;;;;;7.47;1.95;;;6.40;99.90;;;;;;5141846;27;20463;-73
2022/11/05 01:00:52;;;;;;;7.35;2.08;;;6.40;99.90;;;;;;5138881;27;20481;-73
2022/11/05 01:03:23;;;;;;;7.57;2.20;;;6.40;99.90;;;;;;5125234;27;20131;-73
2022/11/05 01:05:51;;;;;;;13.93;2.50;;;6.40;99.90;;;;;;5120921;27;20111;-73
2022/11/05 01:08:18;;;;;;;9.77;1.83;;;6.40;99.90;;;;;;5108220;27;20031;-73
2022/11/05 01:10:48;;;;;;;9.82;1.67;;;6.40;99.90;;;;;;5121087;27;20045;-72
2022/11/05 01:13:17;;;;;;;8.70;1.55;;;7.80;99.90;;;;;;5126403;27;20027;-72
2022/11/05 01:15:43;;;;;;;8.35;1.75;;;6.40;99.90;;;;;;5106503;27;20046;-73
2022/11/05 01:18:09;;;;;;;8.50;1.92;;;6.40;99.90;;;;;;5122969;27;20463;-72
2022/11/05 01:20:34;;;;;;;5.65;1.50;;;6.80;99.90;;;;;;5129799;27;20034;-72
2022/11/05 01:23:00;;;;;;;7.32;1.50;;;6.50;99.90;;;;;;5146881;27;20122;-73
2022/11/05 01:25:25;;;;;;;10.05;2.33;;;6.40;99.90;;;;;;5130977;27;20061;-73
2022/11/05 01:27:51;;;;;;;9.70;1.90;;;6.40;99.90;;;;;;5124409;27;20126;-73
2022/11/05 01:30:17;;;;;;;10.90;3.10;;;6.60;99.90;;;;;;5127976;27;20051;-73
2022/11/05 01:32:43;;;;;;;5.70;1.73;;;6.40;99.90;;;;;;5144233;27;20043;-73
2022/11/05 01:35:12;;;;;;;4.75;1.58;;;6.40;99.90;;;;;;5130366;27;20397;-72
2022/11/05 01:37:38;;;;;;;8.00;1.55;;;7.90;99.90;;;;;;5125334;27;20038;-73
2022/11/05 01:40:05;;;;;;;7.13;2.10;;;6.40;99.90;;;;;;5126796;27;20047;-72
2022/11/05 01:42:32;;;;;;;8.25;1.77;;;6.40;99.90;;;;;;5112273;27;20098;-72
2022/11/05 01:45:02;;;;;;;4.75;1.20;;;6.40;99.90;;;;;;5105701;27;20043;-73
2022/11/05 01:47:37;;;;;;;9.45;1.63;;;6.40;99.90;;;;;;5144844;27;20043;-72
2022/11/05 01:50:29;;;;;;;3.72;1.00;;;7.10;99.90;;;;;;5139116;27;20490;-73
2022/11/05 01:53:28;;;;;;;5.38;1.42;;;6.40;99.90;;;;;;5130001;27;20047;-73
2022/11/05 01:56:03;;;;;;;4.32;1.48;;;6.30;99.90;;;;;;5108727;27;20091;-73
2022/11/05 01:58:34;;;;;;;4.40;1.35;;;6.40;99.90;;;;;;5145002;27;20054;-73
2022/11/05 02:01:00;;;;;;;6.93;1.38;;;7.30;99.90;;;;;;5105759;27;20042;-73
2022/11/05 02:03:28;;;;;;;8.27;1.33;;;6.20;99.90;;;;;;5111763;27;20096;-72
2022/11/05 02:05:56;;;;;;;6.10;1.65;;;6.20;99.90;;;;;;5141454;27;20039;-73
2022/11/05 02:08:51;;;;;;;4.60;1.52;;;6.20;99.90;;;;;;5129114;27;20038;-72
2022/11/05 02:11:18;;;;;;;6.60;1.10;;;6.20;99.90;;;;;;5097127;27;20046;-72
2022/11/05 02:13:46;;;;;;;10.10;2.00;;;6.30;99.90;;;;;;5131715;27;20079;-73
2022/11/05 02:16:37;;;;;;;6.22;1.50;;;6.30;99.90;;;;;;5141291;27;20042;-72
2022/11/05 02:19:29;;;;;;;7.32;1.45;;;6.30;99.90;;;;;;5133993;27;20057;-72
2022/11/05 02:22:13;;;;;;;7.40;1.23;;;6.30;99.90;;;;;;5126512;27;20054;-72
2022/11/05 02:24:59;;;;;;;7.27;1.47;;;6.30;99.90;;;;;;5143114;27;20047;-72
2022/11/05 02:27:40;;;;;;;2.17;0.77;;;6.30;99.90;;;;;;5143161;27;20042;-72
2022/11/05 02:30:28;;;;;;;8.68;1.40;;;6.30;99.90;;;;;;5108663;27;20070;-72
2022/11/05 02:33:21;;;;;;;6.97;2.35;;;6.30;99.90;;;;;;5121984;27;20051;-72
2022/11/05 02:36:05;;;;;;;7.57;1.90;;;6.30;99.90;;;;;;5131217;27;20039;-72
2022/11/05 02:38:58;;;;;;;8.30;1.90;;;6.30;99.90;;;;;;5105465;27;20039;-72
2022/11/05 02:42:08;;;;;;;6.82;2.00;;;6.30;99.90;;;;;;5138746;27;20045;-72
2022/11/05 02:45:00;;;;;;;13.88;1.85;;;6.30;99.90;;;;;;5083770;27;20054;-72
2022/11/05 02:47:51;;;;;;;5.38;1.27;;;6.30;99.90;;;;;;5113488;27;20047;-72
2022/11/05 02:50:38;;;;;;;5.07;1.30;;;6.20;99.90;;;;;;5122091;27;20077;-73
2022/11/05 02:53:09;;;;;;;5.00;1.30;;;6.20;99.90;;;;;;5140855;27;20031;-72
2022/11/05 02:55:52;;;;;;;7.78;1.10;;;6.20;99.90;;;;;;5105006;27;20035;-72
2022/11/05 02:58:18;;;;;;;5.85;1.23;;;6.20;99.90;;;;;;5147482;27;20039;-72
2022/11/05 03:00:49;;;;;;;9.20;2.10;;;6.20;99.90;;;;;;5142509;27;20041;-72
2022/11/05 03:03:20;;;;;;;8.73;1.20;;;6.30;99.90;;;;;;5108432;27;20047;-72
2022/11/05 03:05:49;;;;;;;5.68;1.63;;;6.30;99.90;;;;;;5125481;27;20071;-72
2022/11/05 03:08:42;;;;;;;4.45;1.45;;;6.20;99.90;;;;;;5124851;27;20035;-72
2022/11/05 03:11:14;;;;;;;4.85;0.90;;;6.30;99.90;;;;;;5122603;27;20034;-72
2022/11/05 03:14:06;;;;;;;3.67;1.20;;;6.20;99.90;;;;;;5142644;27;20035;-72
2022/11/05 03:16:46;;;;;;;7.35;1.27;;;6.20;99.90;;;;;;5124214;27;20034;-73
2022/11/05 03:19:43;;;;;;;6.28;1.05;;;6.20;99.90;;;;;;5126740;27;20045;-73
2022/11/05 03:22:13;;;;;;;4.13;1.40;;;6.20;99.90;;;;;;5120812;27;20041;-73
2022/11/05 03:24:46;;;;;;;9.00;1.73;;;6.10;99.90;;;;;;5122255;27;20516;-72
2022/11/05 03:27:18;;;;;;;6.75;1.65;;;6.20;99.90;;;;;;5126642;27;20505;-73
2022/11/05 03:29:50;;;;;;;7.88;1.55;;;6.10;99.90;;;;;;5105281;27;20070;-72
2022/11/05 03:32:19;;;;;;;4.07;1.42;;;6.10;99.90;;;;;;5109357;27;20106;-72
2022/11/05 03:35:03;;;;;;;6.25;1.17;;;6.10;99.90;;;;;;5123198;27;20047;-72
2022/11/05 03:37:33;;;;;;;8.35;1.80;;;6.10;99.90;;;;;;5143278;27;20118;-72
2022/11/05 03:40:02;;;;;;;5.68;1.50;;;6.10;99.90;;;;;;5124694;27;20435;-72
2022/11/05 03:42:32;;;;;;;6.88;1.35;;;6.10;99.90;;;;;;5142227;27;20046;-72
2022/11/05 03:45:01;;;;;;;3.83;1.08;;;6.10;99.90;;;;;;5124028;27;20046;-72
2022/11/05 03:47:32;;;;;;;7.70;1.50;;;6.10;99.90;;;;;;5107375;27;20113;-72
2022/11/05 03:50:19;;;;;;;6.32;1.30;;;6.10;99.90;;;;;;5123636;27;20083;-72
2022/11/05 03:52:52;;;;;;;5.53;1.58;;;6.10;99.90;;;;;;5124021;27;20091;-73
2022/11/05 03:55:24;;;;;;;4.13;1.20;;;6.10;99.90;;;;;;5143566;27;20068;-73
2022/11/05 03:57:52;;;;;;;9.48;1.98;;;6.10;99.90;;;;;;5105340;27;20180;-72
2022/11/05 04:00:20;;;;;;;2.83;1.08;;;6.10;99.90;;;;;;5125130;27;20042;-72
2022/11/05 04:02:45;;;;;;;4.85;1.20;;;6.40;99.90;;;;;;5141633;27;20039;-72
2022/11/05 04:05:11;;;;;;;6.10;1.70;;;6.10;99.90;;;;;;5142633;27;20035;-73
2022/11/05 04:13:23;;;;;;;6.22;1.65;;;6.20;99.90;;;;;;5121203;27;20054;-72
2022/11/05 04:18:33;;;;;;;6.13;1.42;;;6.20;99.90;;;;;;5145114;27;20050;-72
2022/11/05 04:26:47;;;;;;;4.55;1.80;;;6.20;99.90;;;;;;5087838;28;20131;-72
2022/11/05 04:32:01;;;;;;;6.18;1.48;;;6.30;99.90;;;;;;5074261;27;20038;-73
2022/11/05 04:34:27;;;;;;;4.97;2.22;;;6.20;99.90;;;;;;5144917;27;20103;-73
2022/11/05 04:36:52;;;;;;;8.60;1.92;;;6.20;99.90;;;;;;5140612;27;20113;-72
2022/11/05 04:39:19;;;;;;;4.45;2.13;;;6.20;99.90;;;;;;5143867;27;20506;-73
2022/11/05 04:41:47;;;;;;;6.93;2.30;;;6.20;99.90;;;;;;5141262;27;20038;-72
2022/11/05 04:44:14;;;;;;;6.47;2.47;;;6.20;99.90;;;;;;5120313;27;20126;-73
2022/11/05 04:46:39;;;;;;;6.07;2.85;;;6.20;99.90;;;;;;5144995;27;20042;-73
2022/11/05 04:49:05;;;;;;;9.55;2.75;;;6.30;99.90;;;;;;5120327;27;20091;-72
2022/11/05 04:51:31;;;;;;;8.20;2.97;;;7.70;99.90;;;;;;5125530;27;20031;-72
2022/11/05 04:53:56;;;;;;;5.38;2.65;;;6.30;99.90;;;;;;5104144;27;20042;-72
2022/11/05 04:56:24;;;;;;;11.07;3.40;;;6.50;99.90;;;;;;5109100;27;20038;-72
2022/11/05 04:58:50;;;;;;;6.10;3.33;;;6.40;99.90;;;;;;5122604;27;20043;-72
2022/11/05 05:01:21;;;;;;;10.15;4.13;;;6.40;99.90;;;;;;5122875;27;20374;-73
2022/11/05 05:03:47;;;;;;;8.10;3.75;;;6.40;99.90;;;;;;5141544;27;20511;-72
2022/11/05 05:06:13;;;;;;;11.85;3.40;;;6.30;99.90;;;;;;5123492;27;20081;-72
2022/11/05 05:08:39;;;;;;;6.78;3.35;;;6.30;99.90;;;;;;5122947;27;20172;-72
2022/11/05 05:11:07;;;;;;;7.55;3.47;;;6.30;99.90;;;;;;5141894;27;20113;-73
2022/11/05 05:13:33;;;;;;;6.95;3.38;;;6.30;99.90;;;;;;5122939;27;20058;-72
2022/11/05 05:16:03;;;;;;;7.65;3.20;;;6.30;99.90;;;;;;5120110;27;20051;-72
2022/11/05 05:18:28;;;;;;;9.63;3.22;;;6.30;99.90;;;;;;5143326;27;20515;-72
2022/11/05 05:23:43;;;;;;;7.03;4.30;;;6.30;99.90;;;;;;5127380;27;20047;-72
2022/11/05 05:26:09;;;;;;;9.15;3.40;;;6.30;99.90;;;;;;5120071;27;20103;-72
2022/11/05 05:28:34;;;;;;;6.22;3.60;;;6.30;99.90;;;;;;5109742;27;20043;-72
2022/11/05 05:31:00;;;;;;;9.32;4.78;;;6.30;99.90;;;;;;5120633;27;20038;-72
2022/11/05 05:33:27;;;;;;;7.30;3.50;;;6.30;99.90;;;;;;5124928;27;20043;-72
2022/11/05 05:35:55;;;;;;;5.75;3.40;;;6.20;99.90;;;;;;5144557;27;20046;-72
2022/11/05 05:38:21;;;;;;;6.75;3.58;;;6.30;99.90;;;;;;5119756;28;20047;-72
2022/11/05 05:40:48;;;;;;;7.72;3.60;;;6.20;99.90;;;;;;5127200;27;20034;-72
2022/11/05 05:43:13;;;;;;;4.82;3.40;;;5.70;99.90;;;;;;5119071;27;20035;-72
2022/11/05 05:45:39;;;;;;;8.30;3.38;;;6.20;99.90;;;;;;5127657;27;20104;-72
2022/11/05 05:48:05;;;;;;;6.20;3.13;;;6.20;99.90;;;;;;5120325;27;20032;-72
2022/11/05 05:50:30;;;;;;;5.97;3.20;;;6.20;99.90;;;;;;5108093;27;20035;-72
2022/11/05 05:52:56;;;;;;;12.35;4.32;;;6.20;99.90;;;;;;5146252;27;20100;-73
2022/11/05 05:55:22;;;;;;;7.70;3.63;;;6.20;99.90;;;;;;5138262;27;20075;-72
2022/11/05 05:57:47;;;;;;;8.95;3.50;;;7.90;99.90;;;;;;5126395;27;20042;-72
2022/11/05 06:00:13;;;;;;;8.10;3.88;;;7.00;99.90;;;;;;5138033;27;20070;-73
2022/11/05 06:02:40;;;;;;;9.15;3.58;;;6.20;99.90;;;;;;5102354;27;20035;-72
2022/11/05 06:05:06;;;;;;;9.48;3.75;;;6.20;99.90;;;;;;5143380;27;20039;-73
2022/11/05 06:07:32;;;;;;;9.20;4.13;;;6.20;99.90;;;;;;5109558;27;20550;-73
2022/11/05 06:09:57;;;;;;;7.75;4.07;;;6.50;99.90;;;;;;5143541;27;20127;-73
2022/11/05 06:12:23;;;;;;;8.02;3.88;;;6.20;99.90;;;;;;5147192;27;20039;-72
2022/11/05 06:14:49;;;;;;;7.10;3.80;;;7.20;99.90;;;;;;5107171;27;20035;-72
2022/11/05 06:17:14;;;;;;;6.43;3.40;;;6.20;99.90;;;;;;5144994;27;20126;-72
2022/11/05 06:19:40;;;;;;;9.07;3.70;;;6.20;99.90;;;;;;5142360;27;20035;-73
2022/11/05 06:22:05;;;;;;;5.05;3.70;;;6.20;99.90;;;;;;5126041;27;20039;-72
2022/11/05 06:24:31;;;;;;;7.35;3.78;;;6.20;99.90;;;;;;5126185;27;20038;-72
2022/11/05 06:26:57;;;;;;;8.82;3.90;;;7.30;99.90;;;;;;5142836;27;20083;-73
2022/11/05 06:29:22;;;;;;;7.75;3.97;;;5.70;99.90;;;;;;5129532;27;20474;-73
2022/11/05 06:31:48;;;;;;;7.30;3.33;;;7.00;99.90;;;;;;5116487;27;20034;-72
2022/11/05 06:34:13;;;;;;;8.70;4.03;;;6.10;99.90;;;;;;5126194;27;20410;-72
2022/11/05 06:36:39;;;;;;;9.43;4.03;;;6.10;99.90;;;;;;5099502;27;20106;-72
2022/11/05 06:39:09;;;;;;;5.85;3.58;;;6.10;99.90;;;;;;5142686;27;20050;-73
2022/11/05 06:41:34;;;;;;;13.52;4.90;;;6.00;99.90;;;;;;5128417;27;20043;-72
2022/11/05 06:44:00;;;;;;;6.75;3.42;;;6.00;99.90;;;;;;5126253;27;20382;-72
2022/11/05 06:46:25;;;;;;;6.95;3.33;;;6.00;99.90;;;;;;5145951;27;20039;-72
2022/11/05 06:48:51;;;;;;;9.93;3.30;;;6.00;99.90;;;;;;5123425;27;20027;-72
2022/11/05 06:51:17;;;;;;;10.07;4.03;;;6.10;99.90;;;;;;5112650;27;20042;-73
2022/11/05 06:53:43;;;;;;;4.57;3.13;;;6.00;99.90;;;;;;5104432;27;20047;-73
2022/11/05 06:56:09;;;;;;;4.32;2.95;;;6.00;99.90;;;;;;5143700;27;20035;-72
2022/11/05 06:58:35;;;;;;;10.40;3.30;;;7.40;99.90;;;;;;5144487;27;20522;-73
2022/11/05 07:01:02;;;;;;;7.13;3.45;;;6.00;99.90;;;;;;5123022;27;20058;-73
2022/11/05 07:03:28;;;;;;;5.88;2.95;;;5.90;99.90;;;;;;5125596;27;20394;-72
2022/11/05 07:05:56;;;;;;;6.25;3.13;;;5.90;99.90;;;;;;5123535;27;20123;-73
2022/11/05 07:08:21;;;;;;;8.98;6.18;;;6.00;99.90;;;;;;5125265;27;20046;-72
2022/11/05 07:10:47;;;;;;;11.60;7.15;;;7.10;99.90;;;;;;5142846;27;20046;-73
2022/11/05 07:13:13;;;;;;;12.80;8.40;;;6.00;99.90;;;;;;5143355;27;20386;-72
2022/11/05 07:15:38;;;;;;;9.45;4.13;;;5.90;99.90;;;;;;5124521;27;20047;-73
2022/11/05 07:18:06;;;;;;;7.28;3.40;;;6.00;99.90;;;;;;5124680;27;20031;-73
2022/11/05 07:20:32;;;;;;;7.35;3.00;;;6.00;99.90;;;;;;5128101;27;20125;-73
2022/11/05 07:23:06;;;;;;;7.82;3.03;;;6.00;99.90;;;;;;5122149;27;20096;-73
2022/11/05 07:25:33;;;;;;;3.58;2.83;;;6.00;99.90;;;;;;5125312;27;20069;-72
2022/11/05 07:27:59;;;;;;;7.45;3.47;;;6.00;99.90;;;;;;5122849;27;20482;-73
2022/11/05 07:30:25;;;;;;;8.30;3.55;;;6.00;99.90;;;;;;5108571;27;20094;-72
2022/11/05 07:32:51;;;;;;;9.93;4.00;;;6.10;99.90;;;;;;5120956;27;20055;-73
2022/11/05 07:35:17;;;;;;;8.73;5.07;;;6.10;99.90;;;;;;5120810;27;20055;-73
2022/11/05 07:37:44;;;;;;;12.30;6.93;;;6.10;99.90;;;;;;5114396;27;20066;-73
2022/11/05 07:40:11;;;;;;;6.28;4.05;;;6.10;99.90;;;;;;5120125;27;20063;-73
2022/11/05 07:42:44;;;;;;;9.07;4.40;;;6.10;99.90;;;;;;5125211;27;20051;-72
2022/11/05 07:45:10;;;;;;;6.43;3.33;;;6.10;99.90;;;;;;5120891;27;20057;-72
2022/11/05 07:47:45;;;;;;;6.10;3.57;;;6.20;99.90;;;;;;4520692;27;10002509;-73
2022/11/05 07:50:11;;;;;;;9.23;3.95;;;6.20;99.90;;;;;;5117680;27;20032;-73
2022/11/05 07:52:37;;;;;;;7.38;4.15;;;6.20;99.90;;;;;;5119291;27;20103;-73
2022/11/05 07:55:03;;;;;;;8.65;4.85;;;6.70;99.90;;;;;;5118529;27;20532;-73
2022/11/05 07:57:28;;;;;;;8.10;4.05;;;6.20;99.90;;;;;;5118757;27;20103;-73
2022/11/05 07:59:54;;;;;;;10.55;3.95;;;6.30;99.90;;;;;;5119795;27;20383;-73
2022/11/05 08:02:19;;;;;;;5.95;3.05;;;6.30;99.90;;;;;;5115750;27;20039;-72
2022/11/05 08:04:45;;;;;;;7.32;3.83;;;6.30;99.90;;;;;;5121423;27;20551;-73
2022/11/05 08:07:10;;;;;;;7.53;3.25;;;6.40;99.90;;;;;;5116850;27;20071;-73
2022/11/05 08:09:36;;;;;;;6.05;3.70;;;6.30;99.90;;;;;;5115461;27;20059;-73
2022/11/05 08:12:02;;;;;;;11.32;5.20;;;6.50;99.90;;;;;;5121465;27;20043;-73
2022/11/05 08:14:27;;;;;;;6.10;4.60;;;6.50;99.90;;;;;;5116784;27;20055;-73
2022/11/05 08:16:53;;;;;;;6.45;3.83;;;6.60;99.90;;;;;;5122994;27;20031;-73
2022/11/05 08:19:18;;;;;;;7.85;3.35;;;6.60;99.90;;;;;;5115433;27;20536;-73
2022/11/05 08:21:44;;;;;;;7.75;3.65;;;6.70;99.90;;;;;;5120609;27;20045;-74
2022/11/05 08:24:10;;;;;;;9.32;4.55;;;6.70;99.90;;;;;;5116644;27;20063;-74
2022/11/05 08:26:35;;;;;;;5.22;3.38;;;6.80;99.90;;;;;;5119177;27;20046;-73
2022/11/05 08:29:01;;;;;;;9.18;3.28;;;6.80;99.90;;;;;;5118628;27;20038;-72
2022/11/05 08:31:26;;;;;;;5.97;3.05;;;6.90;99.90;;;;;;5097483;28;20122;-73
2022/11/05 08:33:53;;;;;;;7.72;3.10;;;7.50;99.90;;;;;;5120522;27;20581;-73
2022/11/05 08:36:19;;;;;;;9.20;3.08;;;7.00;99.90;;;;;;5117121;27;20083;-73
2022/11/05 08:38:44;;;;;;;5.25;2.33;;;7.10;99.90;;;;;;5121013;27;20081;-73
2022/11/05 08:41:10;;;;;;;6.72;3.13;;;6.60;99.90;;;;;;5118179;27;20031;-73
2022/11/05 08:43:35;;;;;;;4.95;3.05;;;7.30;99.90;;;;;;5121467;27;20043;-72
2022/11/05 08:46:01;;;;;;;5.90;2.60;;;7.40;99.90;;;;;;5120986;27;20376;-71
2022/11/05 08:48:27;;;;;;;3.50;2.47;;;7.50;99.90;;;;;;5117933;28;20039;-72
2022/11/05 08:50:53;;;;;;;5.60;2.55;;;7.60;99.90;;;;;;5122661;28;20073;-72
2022/11/05 08:53:19;;;;;;;7.30;3.97;;;7.30;99.90;;;;;;5118786;27;20039;-72
2022/11/05 08:55:46;;;;;;;10.20;5.20;;;7.60;99.90;;;;;;5123317;28;20130;-72
2022/11/05 08:58:14;;;;;;;6.78;3.83;;;7.70;99.90;;;;;;5119026;28;20479;-72
2022/11/05 09:00:41;;;;;;;6.88;2.70;;;7.80;99.90;;;;;;5119009;28;20389;-73
2022/11/05 09:03:07;;;;;;;3.72;2.58;;;7.80;99.90;;;;;;5117453;28;20395;-74
2022/11/05 09:05:36;;;;;;;5.05;2.20;;;8.00;99.90;;;;;;5123185;28;20055;-74
2022/11/05 09:08:11;;;;;;;2.53;2.05;;;8.00;99.90;;;;;;5116316;28;20118;-74
2022/11/05 09:10:38;;;;;;;6.13;2.55;;;8.10;99.90;;;;;;5117747;28;20055;-74
2022/11/05 09:13:04;;;;;;;4.72;1.98;;;8.20;99.90;;;;;;5116693;28;20115;-73
2022/11/05 09:15:30;;;;;;;6.75;2.20;;;7.00;99.90;;;;;;5125891;28;20067;-74
2022/11/05 09:17:56;;;;;;;8.65;2.80;;;8.70;99.90;;;;;;5117897;28;20090;-74
2022/11/05 09:20:22;;;;;;;5.53;2.30;;;8.60;99.90;;;;;;5119451;28;20495;-74
2022/11/05 09:22:49;;;;;;;7.93;2.53;;;8.80;99.90;;;;;;5122140;27;20118;-74
2022/11/05 09:25:15;;;;;;;5.18;2.00;;;8.90;99.90;;;;;;5117829;28;20459;-74
2022/11/05 09:27:41;;;;;;;8.77;2.42;;;9.00;99.90;;;;;;5122180;28;20039;-73
2022/11/05 09:30:08;;;;;;;8.80;2.80;;;9.10;99.90;;;;;;5120261;28;20570;-73
2022/11/05 09:32:33;;;;;;;6.20;2.78;;;9.10;99.90;;;;;;5119812;28;20062;-73
2022/11/05 09:35:00;;;;;;;3.80;1.65;;;9.30;99.90;;;;;;5100651;28;20039;-73
2022/11/05 09:37:26;;;;;;;9.30;2.78;;;9.30;99.90;;;;;;5098030;27;20096;-73
2022/11/05 09:39:52;;;;;;;5.15;2.22;;;9.50;99.90;;;;;;5112957;27;20397;-72
2022/11/05 09:42:21;;;;;;;4.75;1.88;;;9.60;99.90;;;;;;5103631;27;20459;-72
2022/11/05 09:45:00;;;;;;;4.50;1.42;;;9.60;99.90;;;;;;5131922;27;20046;-72
2022/11/05 09:47:39;;;;;;;3.30;1.65;;;9.80;99.90;;;;;;5121099;27;20153;-72
2022/11/05 09:50:13;;;;;;;7.03;2.17;;;9.90;99.90;;;;;;5127901;27;20047;-73
2022/11/05 09:52:39;;;;;;;3.58;2.00;;;9.90;99.90;;;;;;5120898;27;20537;-72
2022/11/05 09:55:17;;;;;;;4.38;1.88;;;10.00;99.90;;;;;;5120258;27;20065;-73
2022/11/05 09:57:49;;;;;;;5.82;2.33;;;11.20;99.90;;;;;;5102170;28;20036;-73
2022/11/05 10:00:16;;;;;;;5.03;2.05;;;10.10;99.90;;;;;;5121485;27;20044;-72
2022/11/05 10:02:56;;;;;;;7.50;1.88;;;10.10;99.90;;;;;;5126854;27;20403;-81
2022/11/05 10:05:24;;;;;;;3.95;2.50;;;10.10;99.90;;;;;;5115254;27;20126;-73
2022/11/05 10:07:57;;;;;;;3.15;1.58;;;10.10;99.90;;;;;;5126494;27;20043;-73
2022/11/05 10:10:40;;;;;;;8.27;1.73;;;10.10;99.90;;;;;;5121126;27;20039;-73
2022/11/05 10:13:27;;;;;;;5.00;2.40;;;10.20;99.90;;;;;;5122384;27;20103;-74
2022/11/05 10:16:18;;;;;;;7.10;1.55;;;10.20;99.90;;;;;;5103788;27;20035;-74
2022/11/05 10:18:49;;;;;;;7.50;2.05;;;10.30;99.90;;;;;;5122359;27;20370;-74
2022/11/05 10:21:18;;;;;;;8.00;1.58;;;10.30;99.90;;;;;;5123792;27;20489;-74
2022/11/05 10:23:47;;;;;;;1.92;1.45;;;10.30;99.90;;;;;;5122866;27;20043;-74
2022/11/05 10:26:22;;;;;;;5.15;1.98;;;10.40;99.90;;;;;;5105885;27;20500;-74
2022/11/05 10:28:49;;;;;;;4.45;1.40;;;10.40;99.90;;;;;;5102583;28;20479;-74
2022/11/05 10:31:19;;;;;;;4.05;1.52;;;10.50;99.90;;;;;;5126517;27;20133;-74
2022/11/05 10:33:58;;;;;;;6.00;1.65;;;10.50;99.90;;;;;;5138765;27;20051;-73
2022/11/05 10:36:30;;;;;;;7.80;2.67;;;10.60;99.90;;;;;;5110809;27;20050;-73
2022/11/05 10:39:00;;;;;;;4.35;1.67;;;10.60;99.90;;;;;;5105038;27;20046;-74
2022/11/05 10:41:45;;;;;;;3.65;1.10;;;10.60;99.90;;;;;;5130845;27;20074;-74
2022/11/05 10:44:29;;;;;;;11.40;1.88;;;10.70;99.90;;;;;;5137956;27;20450;-74
2022/11/05 10:47:00;;;;;;;2.97;1.17;;;10.70;99.90;;;;;;5138962;27;20042;-73
2022/11/05 10:49:43;;;;;;;6.47;1.48;;;10.80;99.90;;;;;;5123435;27;20488;-73
2022/11/05 10:52:26;;;;;;;5.68;1.55;;;10.80;99.90;;;;;;5143854;27;20118;-74
2022/11/05 10:54:57;;;;;;;2.97;1.52;;;10.90;99.90;;;;;;5142763;27;20039;-74
2022/11/05 10:57:35;;;;;;;4.07;1.50;;;10.90;99.90;;;;;;5143827;27;20037;-74
2022/11/05 11:00:16;;;;;;;3.88;1.35;;;11.00;99.90;;;;;;5131531;27;20042;-74
2022/11/05 11:02:52;;;;;;;4.90;1.40;;;11.10;99.90;;;;;;5141087;27;20046;-74
2022/11/05 11:05:38;;;;;;;7.38;1.60;;;11.10;99.90;;;;;;5128443;27;20121;-74
2022/11/05 11:08:10;;;;;;;2.80;0.95;;;11.10;99.90;;;;;;5121915;27;20487;-74
2022/11/05 11:10:51;;;;;;;6.00;2.20;;;11.10;99.90;;;;;;5112621;27;20051;-74
2022/11/05 11:13:22;;;;;;;1.70;0.98;;;11.10;99.90;;;;;;5139928;27;20031;-74
2022/11/05 11:15:49;;;;;;;3.13;1.13;;;11.20;99.90;;;;;;5122101;27;20114;-74
2022/11/05 11:18:26;;;;;;;4.05;1.20;;;11.90;99.90;;;;;;5103906;27;20066;-74
2022/11/05 11:20:52;;;;;;;2.42;0.98;;;11.30;99.90;;;;;;5097182;27;20043;-74
2022/11/05 11:23:17;;;;;;;4.25;1.23;;;11.30;99.90;;;;;;5122078;27;20030;-74
2022/11/05 11:25:50;;;;;;;5.20;1.08;;;11.40;99.90;;;;;;5124151;27;20039;-74
2022/11/05 11:28:23;;;;;;;5.85;1.40;;;11.40;99.90;;;;;;5143133;27;20506;-75
2022/11/05 11:31:12;;;;;;;5.53;1.25;;;11.50;99.90;;;;;;5118844;27;20031;-74
2022/11/05 11:33:41;;;;;;;8.13;1.70;;;11.50;99.90;;;;;;5141824;27;20051;-74
2022/11/05 11:36:09;;;;;;;9.40;1.60;;;11.60;99.90;;;;;;5143816;27;20054;-74
2022/11/05 11:38:36;;;;;;;6.03;1.50;;;11.70;99.90;;;;;;5123158;27;20497;-74
2022/11/05 11:41:10;;;;;;;5.20;2.08;;;11.70;99.90;;;;;;5106997;27;20043;-74
2022/11/05 11:43:38;;;;;;;3.08;0.98;;;11.80;99.90;;;;;;5123234;27;20039;-74
2022/11/05 11:46:12;;;;;;;3.53;0.90;;;11.70;99.90;;;;;;5095856;27;20509;-74
2022/11/05 11:48:39;;;;;;;3.75;1.00;;;12.10;99.90;;;;;;5127071;27;20504;-74
2022/11/05 11:51:24;;;;;;;4.43;0.85;;;11.70;99.90;;;;;;5103831;27;20038;-74
2022/11/05 11:53:54;;;;;;;6.50;1.23;;;11.70;99.90;;;;;;5146297;27;20035;-74
2022/11/05 11:56:20;;;;;;;4.90;1.40;;;11.60;99.90;;;;;;5103947;27;20047;-74
2022/11/05 11:58:50;;;;;;;4.95;1.13;;;11.50;99.90;;;;;;5111268;27;20047;-74
2022/11/05 12:01:40;;;;;;;2.60;1.00;;;11.50;99.90;;;;;;5119033;27;20039;-74
2022/11/05 12:04:11;;;;;;;4.88;1.02;;;11.50;99.90;;;;;;5120939;27;20454;-74
2022/11/05 12:06:46;;;;;;;3.08;0.85;;;11.40;99.90;;;;;;5125337;27;20043;-74
2022/11/05 12:09:37;;;;;;;2.55;0.82;;;11.40;99.90;;;;;;5106758;27;20929;-74
2022/11/05 12:12:34;;;;;;;3.65;1.02;;;11.30;99.90;;;;;;5121053;27;20043;-75
2022/11/05 12:15:19;;;;;;;4.88;0.73;;;11.40;99.90;;;;;;5141829;27;20034;-79
2022/11/05 12:18:09;;;;;;;9.68;1.05;;;11.60;99.90;;;;;;5105407;27;20313;-75
2022/11/05 12:21:03;;;;;;;2.45;0.57;;;11.20;99.90;;;;;;5128622;27;20127;-75
2022/11/05 12:24:00;;;;;;;4.10;0.70;;;11.10;99.90;;;;;;5119783;27;20046;-74
2022/11/05 12:26:35;;;;;;;4.18;1.17;;;11.10;99.90;;;;;;5095318;27;20129;-74
2022/11/05 12:29:25;;;;;;;3.20;0.55;;;11.00;99.90;;;;;;5107564;27;20078;-73
2022/11/05 12:32:09;;;;;;;3.92;0.80;;;11.00;99.90;;;;;;5123725;27;20039;-74
2022/11/05 12:34:47;;;;;;;3.73;0.60;;;11.00;99.90;;;;;;5123441;27;20066;-77
2022/11/05 12:37:30;;;;;;;5.97;1.17;;;11.00;99.90;;;;;;5125790;27;20344;-74
2022/11/05 12:40:11;;;;;;;2.38;1.30;;;11.00;99.90;;;;;;5120332;27;20126;-74
2022/11/05 12:43:02;;;;;;;2.55;0.68;;;11.00;99.90;;;;;;5138595;27;20392;-75
2022/11/05 12:45:44;;;;;;;5.53;0.90;;;11.00;99.90;;;;;;5122569;27;20031;-74
2022/11/05 12:48:16;;;;;;;3.20;1.15;;;10.90;99.90;;;;;;5121971;27;20122;-74
2022/11/05 12:51:08;;;;;;;4.28;0.88;;;11.40;99.90;;;;;;5141071;27;20086;-82
2022/11/05 12:53:40;;;;;;;3.70;0.90;;;10.80;99.90;;;;;;5142450;27;20030;-74
2022/11/05 12:56:13;;;;;;;7.57;1.08;;;10.90;99.90;;;;;;5124312;27;20038;-74
2022/11/05 12:58:44;;;;;;;5.07;1.20;;;10.80;99.90;;;;;;5128727;27;20554;-75
2022/11/05 13:01:18;;;;;;;4.35;1.38;;;10.80;99.90;;;;;;5138558;27;20080;-73
2022/11/05 13:03:54;;;;;;;5.70;0.67;;;10.70;99.90;;;;;;5127139;27;20046;-74
2022/11/05 13:06:31;;;;;;;5.65;1.10;;;10.70;99.90;;;;;;5103473;28;20280;-76
2022/11/05 13:09:18;;;;;;;22.58;1.50;;;10.70;99.90;;;;;;5128068;27;20475;-74
2022/11/05 13:12:05;;;;;;;5.43;1.17;;;10.60;99.90;;;;;;5102375;27;20115;-77
2022/11/05 13:14:50;;;;;;;7.68;1.98;;;10.70;99.90;;;;;;5107449;27;20051;-74
2022/11/05 13:17:19;;;;;;;4.85;2.20;;;10.70;99.90;;;;;;5107006;27;20045;-73
2022/11/05 13:20:00;;;;;;;4.35;1.60;;;10.70;99.90;;;;;;5130650;27;20047;-75
2022/11/05 13:22:46;;;;;;;3.47;1.13;;;10.70;99.90;;;;;;5143097;27;20096;-75
2022/11/05 13:25:25;;;;;;;7.90;1.77;;;10.70;99.90;;;;;;5129888;27;20095;-76
2022/11/05 13:28:00;;;;;;;4.68;1.48;;;10.80;99.90;;;;;;5126672;27;20043;-77
2022/11/05 13:30:30;;;;;;;;;;;10.70;99.90;;;;;;5127064;27;20038;-74
2022/11/05 13:33:10;;;;;;;2.40;0.85;;;10.70;99.90;;;;;;5108120;27;19919;-74
2022/11/05 13:38:58;;;;;;;3.80;1.25;;;11.30;99.90;;;;;;5126364;27;20042;-74
2022/11/05 13:38:58;;;;;;;4.70;1.40;;;10.70;99.90;;;;;;5146067;27;20050;-74
2022/11/05 13:41:47;;;;;;;6.75;1.95;;;10.90;99.90;;;;;;5148031;27;20043;-74
2022/11/05 13:44:51;;;;;;;3.65;1.20;;;10.70;99.90;;;;;;5106863;27;20031;-74
2022/11/05 13:47:36;;;;;;;6.20;2.30;;;10.80;99.90;;;;;;5106066;27;20376;-73
2022/11/05 13:50:39;;;;;;;8.45;2.05;;;10.80;99.90;;;;;;5126441;27;20026;-73
2022/11/05 13:53:05;;;;;;;4.32;2.67;;;10.80;99.90;;;;;;5076198;27;20074;-74
2022/11/05 13:56:01;;;;;;;5.63;2.80;;;10.80;99.90;;;;;;5110353;27;20469;-73
2022/11/05 13:58:30;;;;;;;6.70;3.08;;;10.90;99.90;;;;;;5126761;27;20061;-74
2022/11/05 14:01:00;;;;;;;8.52;3.28;;;10.90;99.90;;;;;;5129468;27;20058;-74